Neptune Pioneer — 3EKH6 — position and weather

sailwx.info

Track history (hours):
 
Tides and Currents Weather Stations Pressure Air Temp Water Temp Dewpoint Dewpoint Depression Visibility Wind Speed Wind Dir Waves Ship Positions

Neptune Pioneer

Last reported at 2016-Jan-16 05:17 UTC. Time now 2016-Feb-08 23:19 UTC.
Position N 01°12' E 103°36'.
Warning: this ship's position is 23 days out of date.

Length 190 m; draft 13 m.

Type: Cargo ship. MMSI: 372723000.

Date/timePositionNaut miles runAvg speedWind from/ knotsBaromVisibWave heightAir tempDewpointWater temp
2016-Jan-16 05:17N 01°12' E 103°36'912.3
2016-Jan-16 04:32N 01°09' E 103°45'1312.9
2016-Jan-16 03:33N 01°14' E 103°56'2 2.3
2016-Jan-16 02:32N 01°17' E 103°57'0 0.0
2016-Jan-16 01:32N 01°17' E 103°57'0 0.0
2016-Jan-16 00:17N 01°16' E 103°57'0 0.0
2016-Jan-15 23:17N 01°16' E 103°57'0 0.0
2016-Jan-15 22:32N 01°16' E 103°57'0 0.0
2016-Jan-15 21:32N 01°16' E 103°57'0 0.0
2016-Jan-15 20:32N 01°17' E 103°57'0 0.0
2016-Jan-15 19:32N 01°17' E 103°57'0 0.0
2016-Jan-15 18:32N 01°17' E 103°57'0 0.0
2016-Jan-15 17:32N 01°17' E 103°57'0 0.0
2016-Jan-15 16:32N 01°16' E 103°57'3 2.8
2016-Jan-15 15:33N 01°16' E 103°59'6 6.0
2016-Jan-15 14:33N 01°16' E 104°05'11 8.2
2016-Jan-15 13:09N 01°18' E 104°17'  
2016-Jan-12 20:29S 04°11' E 114°16'2211.6
2016-Jan-12 18:33S 03°52' E 114°28'10 9.5
2016-Jan-12 17:33S 03°42' E 114°28'0 0.3
2016-Jan-12 16:32S 03°42' E 114°28'0 0.1
2016-Jan-12 15:32S 03°42' E 114°28'0 0.1
2016-Jan-12 14:29S 03°42' E 114°28'0 0.1
2016-Jan-12 13:32S 03°42' E 114°28'0 0.0
2016-Jan-12 12:32S 03°42' E 114°28'0 0.1
2016-Jan-12 11:32S 03°42' E 114°28'0 0.0
2016-Jan-12 10:32S 03°42' E 114°28'0 0.0
2016-Jan-12 09:32S 03°42' E 114°28'0 0.0
2016-Jan-12 08:32S 03°42' E 114°28'0 0.1
2016-Jan-12 07:32S 03°42' E 114°28'0 0.1
2016-Jan-12 06:32S 03°42' E 114°28'0 0.1
2016-Jan-12 05:26S 03°42' E 114°28'0 0.0
2016-Jan-12 04:32S 03°42' E 114°28'0 0.0
2016-Jan-12 03:26S 03°42' E 114°28'0 0.1
2016-Jan-12 02:26S 03°42' E 114°28'0 0.0
2016-Jan-12 01:23S 03°42' E 114°28'0 0.0
2016-Jan-12 00:26S 03°42' E 114°28'0 0.0
2016-Jan-11 23:32S 03°42' E 114°28'0 0.1
2016-Jan-11 22:26S 03°42' E 114°28'0 0.0
2016-Jan-11 21:32S 03°42' E 114°28'0 0.0
2016-Jan-11 20:29S 03°42' E 114°28'0 0.0
2016-Jan-11 19:29S 03°42' E 114°28'0 0.2
2016-Jan-11 18:29S 03°42' E 114°28'0 0.0
2016-Jan-11 17:32S 03°42' E 114°28'0 0.0
2016-Jan-11 16:32S 03°42' E 114°28'0 0.0
2016-Jan-11 15:32S 03°42' E 114°28'0 0.1
2016-Jan-11 14:32S 03°42' E 114°28'0 0.0
2016-Jan-11 13:32S 03°42' E 114°28'0 0.1
2016-Jan-11 12:29S 03°42' E 114°28'0 0.0
2016-Jan-11 11:32S 03°42' E 114°28'0 0.1
2016-Jan-11 10:29S 03°42' E 114°28'0 0.0
2016-Jan-11 09:29S 03°42' E 114°28'0 0.0
2016-Jan-11 08:29S 03°42' E 114°28'0 0.1
2016-Jan-11 07:32S 03°42' E 114°28'0 0.0
2016-Jan-11 06:32S 03°42' E 114°28'0 0.1
2016-Jan-11 05:32S 03°42' E 114°28'0 0.1
2016-Jan-11 04:26S 03°42' E 114°28'0 0.1
2016-Jan-11 03:32S 03°42' E 114°28'0 0.1
2016-Jan-11 02:29S 03°42' E 114°28'0 0.0
2016-Jan-11 01:32S 03°43' E 114°28'0 0.1
2016-Jan-11 00:32S 03°42' E 114°28'0 0.0
2016-Jan-10 23:29S 03°42' E 114°28'0 0.1
2016-Jan-10 22:29S 03°42' E 114°28'0 0.0
2016-Jan-10 21:29S 03°42' E 114°28'0 0.1
2016-Jan-10 19:29S 03°42' E 114°28'0 0.0
2016-Jan-10 18:20S 03°42' E 114°28'0 0.0
2016-Jan-10 16:11S 03°42' E 114°28'0 0.1
2016-Jan-10 15:23S 03°42' E 114°28'0 0.1
2016-Jan-10 14:26S 03°42' E 114°28'0 0.0
2016-Jan-10 13:26S 03°42' E 114°28'0 0.1
2016-Jan-10 12:29S 03°42' E 114°28'0 0.1
2016-Jan-10 11:26S 03°42' E 114°28'0 0.1
2016-Jan-10 10:32S 03°42' E 114°28'0 0.0
2016-Jan-10 09:32S 03°42' E 114°28'0 0.0
2016-Jan-10 08:32S 03°42' E 114°28'0 0.0
2016-Jan-10 07:32S 03°42' E 114°28'0 0.0
2016-Jan-10 06:29S 03°42' E 114°28'0 0.1
2016-Jan-10 05:32S 03°42' E 114°28'0 0.1
2016-Jan-10 04:32S 03°42' E 114°28'0 0.1
2016-Jan-10 03:26S 03°42' E 114°28'0 0.1
2016-Jan-10 02:32S 03°42' E 114°28'0 0.0
2016-Jan-10 01:32S 03°42' E 114°28'0 0.0
2016-Jan-10 00:29S 03°42' E 114°28'0 0.0
2016-Jan-09 23:32S 03°42' E 114°28'0 0.0
2016-Jan-09 22:29S 03°42' E 114°28'0 0.0
2016-Jan-09 21:29S 03°42' E 114°28'0 0.0
2016-Jan-09 20:32S 03°42' E 114°28'0 0.0
2016-Jan-09 19:32S 03°42' E 114°28'0 0.1
2016-Jan-09 18:32S 03°42' E 114°28'0 0.1
2016-Jan-09 17:32S 03°42' E 114°28'0 0.0
2016-Jan-09 16:32S 03°42' E 114°28'0 0.1
2016-Jan-09 15:32S 03°42' E 114°28'0 0.0
2016-Jan-09 14:32S 03°42' E 114°28'0 0.0
2016-Jan-09 13:32S 03°42' E 114°28'0 0.1
2016-Jan-09 12:23S 03°42' E 114°28'0 0.0
2016-Jan-09 11:32S 03°42' E 114°28'0 0.1
2016-Jan-09 10:32S 03°42' E 114°28'0 0.0
2016-Jan-09 09:32S 03°42' E 114°28'0 0.0
2016-Jan-09 08:32S 03°42' E 114°28'0 0.0
2016-Jan-09 07:26S 03°42' E 114°28'0 0.1
2016-Jan-09 06:32S 03°42' E 114°28'0 0.1
2016-Jan-09 05:32S 03°42' E 114°28'0 0.1
2016-Jan-09 04:23S 03°42' E 114°28'0 0.1
2016-Jan-09 03:32S 03°42' E 114°28'0 0.1
2016-Jan-09 02:29S 03°42' E 114°28'0 0.0
2016-Jan-09 01:32S 03°42' E 114°28'0 0.1
2016-Jan-09 00:20S 03°42' E 114°28'0 0.0
2016-Jan-08 23:32S 03°42' E 114°28'0 0.0
2016-Jan-08 22:32S 03°42' E 114°28'0 0.1
2016-Jan-08 21:14S 03°42' E 114°28'0 0.0
2016-Jan-08 20:26S 03°42' E 114°28'0 0.0
2016-Jan-08 19:32S 03°42' E 114°28'0 0.1
2016-Jan-08 18:32S 03°42' E 114°28'0 0.0
2016-Jan-08 17:32S 03°42' E 114°28'0 0.0
2016-Jan-08 16:32S 03°42' E 114°28'0 0.0
2016-Jan-08 15:29S 03°42' E 114°28'0 0.0
2016-Jan-08 14:32S 03°42' E 114°28'0 0.0
2016-Jan-08 13:32S 03°42' E 114°28'0 0.0
2016-Jan-08 12:32S 03°42' E 114°28'0 0.1
2016-Jan-08 11:32S 03°42' E 114°28'0 0.0
2016-Jan-08 10:32S 03°42' E 114°28'0 0.0
2016-Jan-08 09:32S 03°42' E 114°28'0 0.0
2016-Jan-08 08:29S 03°42' E 114°28'0 0.1
2016-Jan-08 07:29S 03°42' E 114°28'0 0.0
2016-Jan-08 06:29S 03°42' E 114°28'0 0.1
2016-Jan-08 05:32S 03°42' E 114°28'0 0.1
2016-Jan-08 04:32S 03°42' E 114°28'0 0.1
2016-Jan-08 03:32S 03°43' E 114°28'0 0.1
2016-Jan-08 02:32S 03°42' E 114°28'0 0.0
2016-Jan-08 01:29S 03°42' E 114°28'0 0.0
2016-Jan-08 00:32S 03°42' E 114°28'0 0.0
2016-Jan-07 23:32S 03°42' E 114°28'0 0.0
2016-Jan-07 22:32S 03°42' E 114°28'0 0.0
2016-Jan-07 21:32S 03°42' E 114°28'0 0.1
2016-Jan-07 20:32S 03°42' E 114°28'0 0.1
2016-Jan-07 19:32S 03°42' E 114°28'0 0.1
2016-Jan-07 18:26S 03°42' E 114°28'0 0.0
2016-Jan-07 17:29S 03°42' E 114°28'0 0.0
2016-Jan-07 16:32S 03°42' E 114°28'0 0.0
2016-Jan-07 14:26S 03°42' E 114°28'0 0.0
2016-Jan-07 13:32S 03°42' E 114°28'0 0.0
2016-Jan-07 12:23S 03°42' E 114°28'0 0.0
2016-Jan-07 11:29S 03°42' E 114°28'0 0.1
2016-Jan-07 10:32S 03°42' E 114°28'0 0.2
2016-Jan-07 09:33S 03°42' E 114°28'8 8.0
2016-Jan-07 08:31S 03°48' E 114°23'  
Track history (hours):
 
Tides and Currents Weather Stations Pressure Air Temp Water Temp Dewpoint Dewpoint Depression Visibility Wind Speed Wind Dir Waves Ship Positions

Neptune Pioneer

Last reported at 2016-Jan-16 05:17 UTC. Time now 2016-Feb-08 23:19 UTC.
Position N 01°12' E 103°36'.
Warning: this ship's position is 23 days out of date.

Length 190 m; draft 13 m.

Type: Cargo ship. MMSI: 372723000.

Date/timePositionNaut miles runAvg speedWind from/ knotsBaromVisibWave heightAir tempDewpointWater temp
2016-Jan-16 05:17N 01°12' E 103°36'912.3
2016-Jan-16 04:32N 01°09' E 103°45'1312.9
2016-Jan-16 03:33N 01°14' E 103°56'2 2.3
2016-Jan-16 02:32N 01°17' E 103°57'0 0.0
2016-Jan-16 01:32N 01°17' E 103°57'0 0.0
2016-Jan-16 00:17N 01°16' E 103°57'0 0.0
2016-Jan-15 23:17N 01°16' E 103°57'0 0.0
2016-Jan-15 22:32N 01°16' E 103°57'0 0.0
2016-Jan-15 21:32N 01°16' E 103°57'0 0.0
2016-Jan-15 20:32N 01°17' E 103°57'0 0.0
2016-Jan-15 19:32N 01°17' E 103°57'0 0.0
2016-Jan-15 18:32N 01°17' E 103°57'0 0.0
2016-Jan-15 17:32N 01°17' E 103°57'0 0.0
2016-Jan-15 16:32N 01°16' E 103°57'3 2.8
2016-Jan-15 15:33N 01°16' E 103°59'6 6.0
2016-Jan-15 14:33N 01°16' E 104°05'11 8.2
2016-Jan-15 13:09N 01°18' E 104°17'  
2016-Jan-12 20:29S 04°11' E 114°16'2211.6
2016-Jan-12 18:33S 03°52' E 114°28'10 9.5
2016-Jan-12 17:33S 03°42' E 114°28'0 0.3
2016-Jan-12 16:32S 03°42' E 114°28'0 0.1
2016-Jan-12 15:32S 03°42' E 114°28'0 0.1
2016-Jan-12 14:29S 03°42' E 114°28'0 0.1
2016-Jan-12 13:32S 03°42' E 114°28'0 0.0
2016-Jan-12 12:32S 03°42' E 114°28'0 0.1
2016-Jan-12 11:32S 03°42' E 114°28'0 0.0
2016-Jan-12 10:32S 03°42' E 114°28'0 0.0
2016-Jan-12 09:32S 03°42' E 114°28'0 0.0
2016-Jan-12 08:32S 03°42' E 114°28'0 0.1
2016-Jan-12 07:32S 03°42' E 114°28'0 0.1
2016-Jan-12 06:32S 03°42' E 114°28'0 0.1
2016-Jan-12 05:26S 03°42' E 114°28'0 0.0
2016-Jan-12 04:32S 03°42' E 114°28'0 0.0
2016-Jan-12 03:26S 03°42' E 114°28'0 0.1
2016-Jan-12 02:26S 03°42' E 114°28'0 0.0
2016-Jan-12 01:23S 03°42' E 114°28'0 0.0
2016-Jan-12 00:26S 03°42' E 114°28'0 0.0
2016-Jan-11 23:32S 03°42' E 114°28'0 0.1
2016-Jan-11 22:26S 03°42' E 114°28'0 0.0
2016-Jan-11 21:32S 03°42' E 114°28'0 0.0
2016-Jan-11 20:29S 03°42' E 114°28'0 0.0
2016-Jan-11 19:29S 03°42' E 114°28'0 0.2
2016-Jan-11 18:29S 03°42' E 114°28'0 0.0
2016-Jan-11 17:32S 03°42' E 114°28'0 0.0
2016-Jan-11 16:32S 03°42' E 114°28'0 0.0
2016-Jan-11 15:32S 03°42' E 114°28'0 0.1
2016-Jan-11 14:32S 03°42' E 114°28'0 0.0
2016-Jan-11 13:32S 03°42' E 114°28'0 0.1
2016-Jan-11 12:29S 03°42' E 114°28'0 0.0
2016-Jan-11 11:32S 03°42' E 114°28'0 0.1
2016-Jan-11 10:29S 03°42' E 114°28'0 0.0
2016-Jan-11 09:29S 03°42' E 114°28'0 0.0
2016-Jan-11 08:29S 03°42' E 114°28'0 0.1
2016-Jan-11 07:32S 03°42' E 114°28'0 0.0
2016-Jan-11 06:32S 03°42' E 114°28'0 0.1
2016-Jan-11 05:32S 03°42' E 114°28'0 0.1
2016-Jan-11 04:26S 03°42' E 114°28'0 0.1
2016-Jan-11 03:32S 03°42' E 114°28'0 0.1
2016-Jan-11 02:29S 03°42' E 114°28'0 0.0
2016-Jan-11 01:32S 03°43' E 114°28'0 0.1
2016-Jan-11 00:32S 03°42' E 114°28'0 0.0
2016-Jan-10 23:29S 03°42' E 114°28'0 0.1
2016-Jan-10 22:29S 03°42' E 114°28'0 0.0
2016-Jan-10 21:29S 03°42' E 114°28'0 0.1
2016-Jan-10 19:29S 03°42' E 114°28'0 0.0
2016-Jan-10 18:20S 03°42' E 114°28'0 0.0
2016-Jan-10 16:11S 03°42' E 114°28'0 0.1
2016-Jan-10 15:23S 03°42' E 114°28'0 0.1
2016-Jan-10 14:26S 03°42' E 114°28'0 0.0
2016-Jan-10 13:26S 03°42' E 114°28'0 0.1
2016-Jan-10 12:29S 03°42' E 114°28'0 0.1
2016-Jan-10 11:26S 03°42' E 114°28'0 0.1
2016-Jan-10 10:32S 03°42' E 114°28'0 0.0
2016-Jan-10 09:32S 03°42' E 114°28'0 0.0
2016-Jan-10 08:32S 03°42' E 114°28'0 0.0
2016-Jan-10 07:32S 03°42' E 114°28'0 0.0
2016-Jan-10 06:29S 03°42' E 114°28'0 0.1
2016-Jan-10 05:32S 03°42' E 114°28'0 0.1
2016-Jan-10 04:32S 03°42' E 114°28'0 0.1
2016-Jan-10 03:26S 03°42' E 114°28'0 0.1
2016-Jan-10 02:32S 03°42' E 114°28'0 0.0
2016-Jan-10 01:32S 03°42' E 114°28'0 0.0
2016-Jan-10 00:29S 03°42' E 114°28'0 0.0
2016-Jan-09 23:32S 03°42' E 114°28'0 0.0
2016-Jan-09 22:29S 03°42' E 114°28'0 0.0
2016-Jan-09 21:29S 03°42' E 114°28'0 0.0
2016-Jan-09 20:32S 03°42' E 114°28'0 0.0
2016-Jan-09 19:32S 03°42' E 114°28'0 0.1
2016-Jan-09 18:32S 03°42' E 114°28'0 0.1
2016-Jan-09 17:32S 03°42' E 114°28'0 0.0
2016-Jan-09 16:32S 03°42' E 114°28'0 0.1
2016-Jan-09 15:32S 03°42' E 114°28'0 0.0
2016-Jan-09 14:32S 03°42' E 114°28'0 0.0
2016-Jan-09 13:32S 03°42' E 114°28'0 0.1
2016-Jan-09 12:23S 03°42' E 114°28'0 0.0
2016-Jan-09 11:32S 03°42' E 114°28'0 0.1
2016-Jan-09 10:32S 03°42' E 114°28'0 0.0
2016-Jan-09 09:32S 03°42' E 114°28'0 0.0
2016-Jan-09 08:32S 03°42' E 114°28'0 0.0
2016-Jan-09 07:26S 03°42' E 114°28'0 0.1
2016-Jan-09 06:32S 03°42' E 114°28'0 0.1
2016-Jan-09 05:32S 03°42' E 114°28'0 0.1
2016-Jan-09 04:23S 03°42' E 114°28'0 0.1
2016-Jan-09 03:32S 03°42' E 114°28'0 0.1
2016-Jan-09 02:29S 03°42' E 114°28'0 0.0
2016-Jan-09 01:32S 03°42' E 114°28'0 0.1
2016-Jan-09 00:20S 03°42' E 114°28'0 0.0
2016-Jan-08 23:32S 03°42' E 114°28'0 0.0
2016-Jan-08 22:32S 03°42' E 114°28'0 0.1
2016-Jan-08 21:14S 03°42' E 114°28'0 0.0
2016-Jan-08 20:26S 03°42' E 114°28'0 0.0
2016-Jan-08 19:32S 03°42' E 114°28'0 0.1
2016-Jan-08 18:32S 03°42' E 114°28'0 0.0
2016-Jan-08 17:32S 03°42' E 114°28'0 0.0
2016-Jan-08 16:32S 03°42' E 114°28'0 0.0
2016-Jan-08 15:29S 03°42' E 114°28'0 0.0
2016-Jan-08 14:32S 03°42' E 114°28'0 0.0
2016-Jan-08 13:32S 03°42' E 114°28'0 0.0
2016-Jan-08 12:32S 03°42' E 114°28'0 0.1
2016-Jan-08 11:32S 03°42' E 114°28'0 0.0
2016-Jan-08 10:32S 03°42' E 114°28'0 0.0
2016-Jan-08 09:32S 03°42' E 114°28'0 0.0
2016-Jan-08 08:29S 03°42' E 114°28'0 0.1
2016-Jan-08 07:29S 03°42' E 114°28'0 0.0
2016-Jan-08 06:29S 03°42' E 114°28'0 0.1
2016-Jan-08 05:32S 03°42' E 114°28'0 0.1
2016-Jan-08 04:32S 03°42' E 114°28'0 0.1
2016-Jan-08 03:32S 03°43' E 114°28'0 0.1
2016-Jan-08 02:32S 03°42' E 114°28'0 0.0
2016-Jan-08 01:29S 03°42' E 114°28'0 0.0
2016-Jan-08 00:32S 03°42' E 114°28'0 0.0
2016-Jan-07 23:32S 03°42' E 114°28'0 0.0
2016-Jan-07 22:32S 03°42' E 114°28'0 0.0
2016-Jan-07 21:32S 03°42' E 114°28'0 0.1
2016-Jan-07 20:32S 03°42' E 114°28'0 0.1
2016-Jan-07 19:32S 03°42' E 114°28'0 0.1
2016-Jan-07 18:26S 03°42' E 114°28'0 0.0
2016-Jan-07 17:29S 03°42' E 114°28'0 0.0
2016-Jan-07 16:32S 03°42' E 114°28'0 0.0
2016-Jan-07 14:26S 03°42' E 114°28'0 0.0
2016-Jan-07 13:32S 03°42' E 114°28'0 0.0
2016-Jan-07 12:23S 03°42' E 114°28'0 0.0
2016-Jan-07 11:29S 03°42' E 114°28'0 0.1
2016-Jan-07 10:32S 03°42' E 114°28'0 0.2
2016-Jan-07 09:33S 03°42' E 114°28'8 8.0
2016-Jan-07 08:31S 03°48' E 114°23'  

Dump ship's entire track history